Time;durP1;ratioP1;P1;durP2;ratioP2;P2;SDS_P1;SDS_P2;PMS_P1;PMS_P2;Temp;Humidity;BMP_temperature;BMP_pressure;BME280_temperature;BME280_humidity;BME280_pressure;Samples;Min_cycle;Max_cycle;Signal;HPM_P1;HPM_P2
2023/01/21 00:02:23;;;;;;;47.55;25.83;;;0.60;99.90;;;;;;4958034;28;20408;-60
2023/01/21 00:04:49;;;;;;;47.08;23.73;;;0.60;99.90;;;;;;4969946;28;20049;-61
2023/01/21 00:07:14;;;;;;;45.40;25.10;;;0.50;99.90;;;;;;4980171;28;20390;-61
2023/01/21 00:09:40;;;;;;;47.63;25.63;;;0.50;99.90;;;;;;4966297;28;20537;-60
2023/01/21 00:12:06;;;;;;;47.00;24.77;;;0.50;99.90;;;;;;4980353;28;20049;-62
2023/01/21 00:14:32;;;;;;;46.03;25.20;;;0.40;99.90;;;;;;4980006;28;20038;-62
2023/01/21 00:16:58;;;;;;;40.55;22.95;;;0.40;99.90;;;;;;4961518;28;20049;-62
2023/01/21 00:19:24;;;;;;;46.65;26.20;;;0.40;99.90;;;;;;4963502;28;20065;-61
2023/01/21 00:21:50;;;;;;;41.58;23.38;;;0.40;99.90;;;;;;4940077;28;20621;-61
2023/01/21 00:24:16;;;;;;;44.05;24.80;;;0.30;99.90;;;;;;4984269;28;20038;-62
2023/01/21 00:26:42;;;;;;;45.78;24.77;;;0.40;99.90;;;;;;4970733;28;20048;-60
2023/01/21 00:29:09;;;;;;;45.97;26.23;;;0.30;99.90;;;;;;4959207;28;20046;-60
2023/01/21 00:31:35;;;;;;;52.20;26.45;;;0.30;99.90;;;;;;4950958;28;20521;-62
2023/01/21 00:34:01;;;;;;;44.80;26.20;;;0.30;99.90;;;;;;4978546;28;20046;-61
2023/01/21 00:36:28;;;;;;;44.50;23.17;;;0.20;99.90;;;;;;4948459;28;20042;-61
2023/01/21 00:38:55;;;;;;;49.80;26.25;;;0.20;99.90;;;;;;4964538;28;20058;-62
2023/01/21 00:41:23;;;;;;;45.88;24.33;;;0.20;99.90;;;;;;4973173;28;20121;-61
2023/01/21 00:43:49;;;;;;;39.97;22.02;;;0.20;99.90;;;;;;4957995;28;20406;-60
2023/01/21 00:46:15;;;;;;;46.20;24.92;;;0.20;99.90;;;;;;4984475;28;20114;-62
2023/01/21 00:48:40;;;;;;;50.42;25.73;;;0.20;99.90;;;;;;4958562;28;20227;-62
2023/01/21 00:51:06;;;;;;;50.60;25.25;;;0.20;99.90;;;;;;4968666;28;20053;-62
2023/01/21 00:53:34;;;;;;;46.70;25.92;;;0.20;99.90;;;;;;4957033;28;20038;-61
2023/01/21 00:56:02;;;;;;;46.00;25.00;;;0.20;99.90;;;;;;4967656;28;20038;-62
2023/01/21 00:58:28;;;;;;;49.97;25.35;;;0.10;99.90;;;;;;4979611;28;20429;-61
2023/01/21 01:01:03;;;;;;;39.45;22.25;;;0.10;99.90;;;;;;4951542;28;20113;-61
2023/01/21 01:03:30;;;;;;;49.42;24.80;;;0.10;99.90;;;;;;4992746;28;20056;-61
2023/01/21 01:06:01;;;;;;;47.03;24.90;;;0.10;99.90;;;;;;4973270;28;20056;-60
2023/01/21 01:08:27;;;;;;;39.92;22.95;;;0.10;99.90;;;;;;4982477;28;20042;-61
2023/01/21 01:10:53;;;;;;;48.83;25.55;;;0.00;99.90;;;;;;4990401;28;20056;-61
2023/01/21 01:13:19;;;;;;;47.15;24.40;;;0.00;99.90;;;;;;4969289;28;20046;-61
2023/01/21 01:15:46;;;;;;;46.40;25.50;;;0.00;99.90;;;;;;4973557;28;20564;-60
2023/01/21 01:18:12;;;;;;;46.72;24.75;;;-0.10;99.90;;;;;;4974032;28;20105;-62
2023/01/21 01:20:42;;;;;;;51.40;25.33;;;-0.10;99.90;;;;;;4972549;28;20038;-61
2023/01/21 01:23:07;;;;;;;47.17;23.00;;;-0.10;99.90;;;;;;4979313;28;20479;-61
2023/01/21 01:25:34;;;;;;;47.25;24.88;;;-0.10;99.90;;;;;;4981666;28;20082;-60
2023/01/21 01:27:59;;;;;;;45.50;25.42;;;-0.10;99.90;;;;;;4964724;28;20129;-61
2023/01/21 01:30:25;;;;;;;49.58;26.48;;;-0.10;99.90;;;;;;4961131;28;20568;-61
2023/01/21 01:32:51;;;;;;;47.23;26.60;;;-0.10;99.90;;;;;;4969113;28;20417;-60
2023/01/21 01:35:17;;;;;;;48.08;25.02;;;-0.10;99.90;;;;;;4972414;28;20516;-61
2023/01/21 01:37:42;;;;;;;48.95;25.05;;;-0.10;99.90;;;;;;4968723;28;20063;-61
2023/01/21 01:40:09;;;;;;;49.47;26.57;;;-0.10;99.90;;;;;;4987046;28;20034;-61
2023/01/21 01:42:35;;;;;;;42.00;22.45;;;-0.10;99.90;;;;;;4964624;28;20112;-61
2023/01/21 01:45:15;;;;;;;43.30;23.30;;;-0.20;99.90;;;;;;4937869;28;20349;-61
2023/01/21 01:47:46;;;;;;;43.25;22.30;;;-0.20;99.90;;;;;;4937624;28;20517;-59
2023/01/21 01:50:16;;;;;;;48.05;24.45;;;-0.20;99.90;;;;;;4973895;28;20266;-60
2023/01/21 01:52:43;;;;;;;43.50;25.20;;;-0.30;99.90;;;;;;4973885;28;20096;-61
2023/01/21 01:55:11;;;;;;;52.47;25.45;;;-0.30;99.90;;;;;;4962325;28;20170;-61
2023/01/21 01:57:42;;;;;;;47.15;26.13;;;-0.30;99.90;;;;;;4952568;28;20071;-61
2023/01/21 02:00:11;;;;;;;49.23;26.47;;;-0.30;99.90;;;;;;4977800;28;20038;-61
2023/01/21 02:02:42;;;;;;;50.78;26.25;;;-0.30;99.90;;;;;;4969281;28;20756;-60
2023/01/21 02:05:09;;;;;;;45.78;25.38;;;-0.30;99.90;;;;;;4984895;28;20038;-60
2023/01/21 02:07:41;;;;;;;49.55;25.85;;;-0.30;99.90;;;;;;4960862;28;20116;-61
2023/01/21 02:10:12;;;;;;;47.28;26.08;;;-0.20;99.90;;;;;;4961489;28;20494;-61
2023/01/21 02:12:40;;;;;;;40.45;22.90;;;-0.20;99.90;;;;;;4983724;28;20085;-61
2023/01/21 02:15:07;;;;;;;46.83;24.17;;;-0.20;99.90;;;;;;4977433;28;20039;-61
2023/01/21 02:17:45;;;;;;;46.00;25.77;;;-0.30;99.90;;;;;;4977500;28;20034;-61
2023/01/21 02:20:46;;;;;;;47.05;23.80;;;-0.30;99.90;;;;;;4948262;28;20665;-62
2023/01/21 02:23:18;;;;;;;44.65;23.13;;;-0.30;99.90;;;;;;4982014;28;20519;-60
2023/01/21 02:26:03;;;;;;;42.87;22.20;;;-0.30;99.90;;;;;;4973780;28;20038;-61
2023/01/21 02:29:08;;;;;;;43.60;22.90;;;-0.30;99.90;;;;;;4966360;28;20054;-61
2023/01/21 02:31:46;;;;;;;41.83;23.10;;;-0.40;99.90;;;;;;4977670;28;20042;-61
2023/01/21 02:34:26;;;;;;;43.57;21.33;;;-0.40;99.90;;;;;;4980290;28;20264;-61
2023/01/21 02:37:16;;;;;;;48.38;24.02;;;-0.40;99.90;;;;;;4984810;28;20294;-61
2023/01/21 02:40:08;;;;;;;46.90;23.17;;;-0.40;99.90;;;;;;4981768;28;20408;-62
2023/01/21 02:42:59;;;;;;;57.60;28.43;;;-0.40;99.90;;;;;;4973196;28;20490;-60
2023/01/21 02:45:32;;;;;;;45.30;23.37;;;-0.50;99.90;;;;;;4946631;28;20046;-61
2023/01/21 02:48:04;;;;;;;46.38;23.50;;;-0.50;99.90;;;;;;4961964;28;20042;-61
2023/01/21 02:50:34;;;;;;;50.50;26.47;;;-0.60;99.90;;;;;;4976081;28;20051;-61
2023/01/21 02:53:03;;;;;;;42.57;22.23;;;-0.60;99.90;;;;;;4940126;28;20078;-61
2023/01/21 02:55:38;;;;;;;44.43;24.10;;;-0.60;99.90;;;;;;4977200;28;20168;-62
2023/01/21 02:58:13;;;;;;;48.80;25.90;;;-0.50;99.90;;;;;;4975131;28;20509;-61
2023/01/21 03:01:10;;;;;;;42.93;23.63;;;-0.60;99.90;;;;;;4979915;28;20111;-60
2023/01/21 03:03:58;;;;;;;48.50;25.35;;;-0.50;99.90;;;;;;4942068;28;20038;-61
2023/01/21 03:07:03;;;;;;;43.37;22.80;;;-0.60;99.90;;;;;;4961176;28;20042;-60
2023/01/21 03:09:31;;;;;;;49.00;25.10;;;-0.60;99.90;;;;;;4979534;28;20043;-61
2023/01/21 03:12:28;;;;;;;42.87;23.17;;;-0.60;99.90;;;;;;4976629;28;20046;-60
2023/01/21 03:18:02;;;;;;;48.97;25.23;;;-0.60;99.90;;;;;;4973680;28;20085;-60
2023/01/21 03:20:39;;;;;;;47.20;23.50;;;-0.50;99.90;;;;;;4968566;28;20093;-61
2023/01/21 03:23:12;;;;;;;53.43;26.57;;;-0.50;99.90;;;;;;4973894;28;20055;-61
2023/01/21 03:25:39;;;;;;;46.47;23.70;;;-0.60;99.90;;;;;;4980716;28;20472;-61
2023/01/21 03:28:10;;;;;;;51.93;26.53;;;-0.60;99.90;;;;;;4958863;28;20043;-61
2023/01/21 03:30:42;;;;;;;53.43;27.60;;;-0.60;99.90;;;;;;4983052;28;20559;-61
2023/01/21 03:33:10;;;;;;;50.93;26.23;;;-0.60;99.90;;;;;;4975781;28;20110;-61
2023/01/21 03:35:40;;;;;;;51.87;26.27;;;-0.60;99.90;;;;;;4978285;28;20542;-61
2023/01/21 03:38:30;;;;;;;51.67;26.83;;;-0.70;99.90;;;;;;4976545;28;20066;-61
2023/01/21 03:40:59;;;;;;;56.27;27.40;;;-0.70;99.90;;;;;;4956047;28;20068;-61
2023/01/21 03:43:24;;;;;;;52.93;26.50;;;-0.70;99.90;;;;;;4968537;28;20531;-62
2023/01/21 03:45:57;;;;;;;53.63;27.40;;;-0.70;99.90;;;;;;4967181;28;20046;-61
2023/01/21 03:48:26;;;;;;;46.58;25.02;;;-0.80;99.90;;;;;;4987091;28;20122;-61
2023/01/21 03:51:04;;;;;;;48.43;26.80;;;-0.80;99.90;;;;;;4962463;28;20701;-61
2023/01/21 03:53:29;;;;;;;51.37;27.50;;;-0.80;99.90;;;;;;4984671;28;20069;-61
2023/01/21 03:55:55;;;;;;;58.03;29.40;;;-0.90;99.90;;;;;;4948382;28;20042;-61
2023/01/21 03:58:21;;;;;;;51.07;27.67;;;-0.90;99.90;;;;;;4942305;28;20042;-61
2023/01/21 04:00:48;;;;;;;55.03;28.43;;;-0.90;99.90;;;;;;4936177;28;20046;-61
2023/01/21 04:03:13;;;;;;;49.80;26.67;;;-0.80;99.90;;;;;;4967578;28;20107;-61
2023/01/21 04:05:39;;;;;;;56.33;29.10;;;-0.80;99.90;;;;;;4954810;28;20042;-61
2023/01/21 04:08:05;;;;;;;52.37;29.27;;;-0.80;99.90;;;;;;4986617;28;20045;-61
2023/01/21 04:10:30;;;;;;;57.60;28.33;;;-0.80;99.90;;;;;;4974226;28;20065;-61
2023/01/21 04:12:56;;;;;;;58.60;28.67;;;-0.70;99.90;;;;;;4961674;28;20054;-60
2023/01/21 04:15:22;;;;;;;55.70;28.97;;;-0.70;99.90;;;;;;4979416;28;20042;-60
2023/01/21 04:17:47;;;;;;;48.47;26.17;;;-0.70;99.90;;;;;;4961546;28;20375;-61
2023/01/21 04:20:13;;;;;;;56.43;29.30;;;-0.60;99.90;;;;;;4977911;28;20049;-61
2023/01/21 04:22:39;;;;;;;55.27;28.50;;;-0.60;99.90;;;;;;4980001;28;20070;-61
2023/01/21 04:25:05;;;;;;;57.70;30.60;;;-0.60;99.90;;;;;;4975193;28;20507;-61
2023/01/21 04:27:30;;;;;;;60.90;30.00;;;-0.60;99.90;;;;;;4955809;28;20118;-61
2023/01/21 04:29:56;;;;;;;57.87;27.93;;;-0.60;99.90;;;;;;4957447;28;20053;-61
2023/01/21 04:32:22;;;;;;;54.57;29.50;;;-0.60;99.90;;;;;;4979647;28;20137;-60
2023/01/21 04:34:47;;;;;;;61.20;31.50;;;-0.60;99.90;;;;;;4959527;28;20434;-61
2023/01/21 04:37:13;;;;;;;50.40;26.10;;;-0.50;99.90;;;;;;4978361;28;20074;-62
2023/01/21 04:39:39;;;;;;;56.40;29.30;;;-0.60;99.90;;;;;;4946536;28;20054;-60
2023/01/21 04:42:04;;;;;;;52.40;27.20;;;-0.50;99.90;;;;;;4975958;28;20046;-60
2023/01/21 04:44:30;;;;;;;57.27;28.63;;;-0.50;99.90;;;;;;4975285;28;20149;-61
2023/01/21 04:46:56;;;;;;;55.03;28.90;;;-0.50;99.90;;;;;;4959151;28;20054;-61
2023/01/21 04:49:21;;;;;;;59.43;29.07;;;-0.40;99.90;;;;;;4984049;28;20054;-61
2023/01/21 04:51:47;;;;;;;60.50;30.07;;;-0.40;99.90;;;;;;4959109;28;20042;-61
2023/01/21 04:54:13;;;;;;;56.97;28.23;;;-0.40;99.90;;;;;;4963685;28;20390;-60
2023/01/21 04:56:38;;;;;;;62.83;28.77;;;-0.40;99.90;;;;;;4957529;28;20034;-59
2023/01/21 04:59:04;;;;;;;54.27;27.43;;;-0.40;99.90;;;;;;4956746;28;20073;-60
2023/01/21 05:01:30;;;;;;;61.07;30.67;;;-0.30;99.90;;;;;;4971621;28;20417;-61
2023/01/21 05:03:56;;;;;;;51.67;28.47;;;-0.30;99.90;;;;;;4934028;28;20042;-61
2023/01/21 05:06:21;;;;;;;57.30;29.33;;;-0.20;99.90;;;;;;4956483;28;20034;-60
2023/01/21 05:08:47;;;;;;;53.00;27.60;;;-0.20;99.90;;;;;;4961271;28;20096;-61
2023/01/21 05:11:16;;;;;;;57.90;28.20;;;-0.20;99.90;;;;;;4955429;28;20049;-61
2023/01/21 05:13:42;;;;;;;57.40;29.17;;;-0.20;99.90;;;;;;4954500;28;20121;-60
2023/01/21 05:16:08;;;;;;;58.53;28.07;;;-0.10;99.90;;;;;;4974631;28;20121;-60
2023/01/21 05:18:36;;;;;;;67.77;29.30;;;-0.10;99.90;;;;;;4981313;28;20488;-60
2023/01/21 05:21:02;;;;;;;69.87;32.70;;;0.00;99.90;;;;;;4964791;28;20050;-61
2023/01/21 05:23:28;;;;;;;67.90;31.77;;;0.10;99.90;;;;;;4961313;28;20038;-60
2023/01/21 05:25:53;;;;;;;59.93;30.57;;;0.10;99.90;;;;;;4979705;28;20044;-61
2023/01/21 05:28:19;;;;;;;62.00;31.90;;;0.20;99.90;;;;;;4944163;28;21054;-61
2023/01/21 05:30:45;;;;;;;66.20;32.10;;;0.20;99.90;;;;;;4982949;28;20165;-61
2023/01/21 05:33:10;;;;;;;62.20;30.53;;;0.20;99.90;;;;;;4966219;28;20481;-60
2023/01/21 05:35:36;;;;;;;54.92;26.27;;;0.20;99.90;;;;;;4954600;28;20043;-61
2023/01/21 05:38:02;;;;;;;75.33;32.73;;;0.20;99.90;;;;;;4981662;28;20339;-61
2023/01/21 05:40:28;;;;;;;45.77;25.00;;;0.20;99.90;;;;;;4990341;28;20046;-61
2023/01/21 05:42:53;;;;;;;59.53;29.80;;;0.30;99.90;;;;;;4967651;28;20046;-60
2023/01/21 05:45:19;;;;;;;58.97;29.03;;;0.20;99.90;;;;;;4970599;28;20521;-60
2023/01/21 05:47:45;;;;;;;60.20;31.50;;;0.20;99.90;;;;;;4948271;28;20077;-61
2023/01/21 05:50:11;;;;;;;64.07;31.13;;;0.20;99.90;;;;;;4956906;28;21319;-61
2023/01/21 05:52:37;;;;;;;67.83;31.87;;;0.20;99.90;;;;;;4958388;28;20456;-60
2023/01/21 05:55:03;;;;;;;65.55;31.15;;;0.20;99.90;;;;;;4978342;28;20124;-60
2023/01/21 05:57:30;;;;;;;73.03;33.73;;;0.20;99.90;;;;;;4965601;28;20042;-61
2023/01/21 05:59:56;;;;;;;66.03;31.10;;;0.20;99.90;;;;;;4949465;28;20084;-60
2023/01/21 06:02:21;;;;;;;56.57;29.97;;;0.20;99.90;;;;;;4979288;28;20430;-61
2023/01/21 06:04:47;;;;;;;60.37;30.00;;;0.20;99.90;;;;;;4981127;28;20042;-61
2023/01/21 06:07:13;;;;;;;70.60;33.20;;;0.20;99.90;;;;;;4978719;28;20054;-60
2023/01/21 06:09:38;;;;;;;59.23;29.73;;;0.20;99.90;;;;;;4956633;28;20038;-60
2023/01/21 06:12:04;;;;;;;75.30;34.27;;;0.20;99.90;;;;;;4953578;28;20034;-61
2023/01/21 06:14:30;;;;;;;68.30;31.80;;;0.10;99.90;;;;;;4977989;28;20038;-61
2023/01/21 06:16:56;;;;;;;74.70;33.70;;;0.10;99.90;;;;;;4978228;28;20039;-60
2023/01/21 06:19:21;;;;;;;64.83;29.60;;;0.00;99.90;;;;;;4951553;28;20035;-61
2023/01/21 06:21:47;;;;;;;57.57;29.00;;;-0.10;99.90;;;;;;4980126;28;20652;-61
2023/01/21 06:24:13;;;;;;;63.33;31.33;;;-0.10;99.90;;;;;;4983768;28;20072;-60
2023/01/21 06:26:39;;;;;;;72.70;35.10;;;-0.10;99.90;;;;;;4967135;28;20119;-61
2023/01/21 06:29:04;;;;;;;62.30;30.33;;;-0.10;99.90;;;;;;4982642;28;20269;-61
2023/01/21 06:31:30;;;;;;;67.23;32.07;;;-0.20;99.90;;;;;;4963870;28;20046;-61
2023/01/21 06:33:56;;;;;;;72.30;35.03;;;-0.10;99.90;;;;;;4977348;28;20569;-61
2023/01/21 06:36:22;;;;;;;70.03;33.13;;;-0.10;99.90;;;;;;4978315;28;20038;-61
2023/01/21 06:38:48;;;;;;;74.07;33.57;;;-0.10;99.90;;;;;;4980270;28;20425;-61
2023/01/21 06:41:13;;;;;;;60.17;30.87;;;-0.10;99.90;;;;;;4979139;28;20050;-61
2023/01/21 06:43:39;;;;;;;76.90;34.73;;;-0.10;99.90;;;;;;4967806;28;20035;-61
2023/01/21 06:46:05;;;;;;;54.23;29.30;;;-0.10;99.90;;;;;;4957116;28;20050;-61
2023/01/21 06:48:30;;;;;;;62.87;32.43;;;0.00;99.90;;;;;;4979945;28;20064;-61
2023/01/21 06:50:59;;;;;;;64.10;31.47;;;0.00;99.90;;;;;;4971702;28;20074;-60
2023/01/21 06:53:25;;;;;;;68.77;32.03;;;-0.10;99.90;;;;;;4967899;28;20106;-61
2023/01/21 06:55:50;;;;;;;58.17;29.03;;;-0.20;99.90;;;;;;4962661;28;20038;-60
2023/01/21 06:58:16;;;;;;;62.80;31.67;;;-0.20;99.90;;;;;;4954412;28;22225;-60
2023/01/21 07:00:42;;;;;;;61.27;31.13;;;-0.20;99.90;;;;;;4958927;28;20072;-61
2023/01/21 07:03:08;;;;;;;55.20;27.47;;;-0.30;99.90;;;;;;4984481;28;20282;-59
2023/01/21 07:05:33;;;;;;;64.30;30.70;;;-0.30;99.90;;;;;;4957888;28;20039;-61
2023/01/21 07:07:59;;;;;;;63.13;30.87;;;-0.40;99.90;;;;;;4961569;28;20045;-60
2023/01/21 07:10:25;;;;;;;77.97;42.93;;;-0.40;99.90;;;;;;4958029;28;20490;-61
2023/01/21 07:12:51;;;;;;;81.97;42.70;;;-0.40;99.90;;;;;;4950267;28;20038;-61
2023/01/21 07:15:17;;;;;;;94.80;47.70;;;-0.40;99.90;;;;;;4942313;28;20038;-60
2023/01/21 07:17:42;;;;;;;83.10;44.53;;;-0.40;99.90;;;;;;4977376;28;20042;-61
2023/01/21 07:20:11;;;;;;;86.33;46.30;;;-0.40;99.90;;;;;;4974230;28;20041;-61
2023/01/21 07:22:37;;;;;;;87.63;46.27;;;-0.40;99.90;;;;;;4980332;28;20046;-61
2023/01/21 07:25:03;;;;;;;88.67;43.67;;;-0.40;99.90;;;;;;4960156;28;20556;-62
2023/01/21 07:27:29;;;;;;;71.47;39.27;;;-0.40;99.90;;;;;;4953879;28;20046;-61
2023/01/21 07:29:54;;;;;;;62.50;34.17;;;-0.40;99.90;;;;;;4984518;28;20038;-61
2023/01/21 07:32:20;;;;;;;66.80;33.90;;;-0.40;99.90;;;;;;4972670;28;20074;-62
2023/01/21 07:34:46;;;;;;;64.43;32.87;;;-0.30;99.90;;;;;;4986797;28;20046;-60
2023/01/21 07:37:11;;;;;;;61.53;30.53;;;-0.40;99.90;;;;;;4962437;28;20077;-61
2023/01/21 07:39:37;;;;;;;58.50;30.37;;;-0.40;99.90;;;;;;4984195;28;20030;-61
2023/01/21 07:42:03;;;;;;;54.60;28.50;;;-0.40;99.90;;;;;;4974219;28;20054;-61
2023/01/21 07:44:29;;;;;;;55.30;28.67;;;-0.40;99.90;;;;;;4967421;28;20069;-61
2023/01/21 07:46:54;;;;;;;60.47;30.07;;;-0.40;99.90;;;;;;4965928;28;20068;-62
2023/01/21 07:51:46;;;;;;;60.80;32.03;;;-0.40;99.90;;;;;;5005326;23;20120;-61
2023/01/21 07:54:13;;;;;;;63.73;33.63;;;-0.30;99.90;;;;;;4964772;28;20489;-60
2023/01/21 07:56:39;;;;;;;79.60;39.90;;;-0.30;99.90;;;;;;4953165;28;20404;-61
2023/01/21 07:59:05;;;;;;;76.70;35.60;;;-0.20;99.90;;;;;;4983361;28;20129;-61
2023/01/21 08:01:31;;;;;;;65.07;32.87;;;-0.20;99.90;;;;;;4955162;28;20336;-61
2023/01/21 08:03:58;;;;;;;69.87;32.77;;;-0.20;99.90;;;;;;4961794;28;20061;-59
2023/01/21 08:06:24;;;;;;;56.03;30.23;;;-0.20;99.90;;;;;;4947979;28;20080;-60
2023/01/21 08:08:50;;;;;;;58.13;29.90;;;-0.20;99.90;;;;;;4943749;28;20065;-60
2023/01/21 08:11:16;;;;;;;69.67;33.80;;;-0.20;99.90;;;;;;4965388;28;20037;-60
2023/01/21 08:13:43;;;;;;;69.32;34.75;;;-0.20;99.90;;;;;;4940018;28;20457;-60
2023/01/21 08:16:10;;;;;;;77.63;34.35;;;-0.20;99.90;;;;;;4976021;28;20056;-61
2023/01/21 08:18:36;;;;;;;73.90;35.43;;;-0.20;99.90;;;;;;4953196;28;20077;-58
2023/01/21 08:21:02;;;;;;;81.93;42.20;;;-0.20;99.90;;;;;;4981525;23;20455;-64
2023/01/21 08:23:28;;;;;;;75.77;38.43;;;-0.20;99.90;;;;;;4974889;28;20373;-64
2023/01/21 08:25:54;;;;;;;70.00;36.10;;;-0.20;99.90;;;;;;4981724;28;20483;-64
2023/01/21 08:28:21;;;;;;;63.53;33.47;;;-0.10;99.90;;;;;;4985688;28;20512;-63
2023/01/21 08:30:47;;;;;;;74.43;36.37;;;-0.10;99.90;;;;;;4968064;28;20508;-64
2023/01/21 08:33:13;;;;;;;79.10;37.17;;;-0.10;99.90;;;;;;4976541;28;20052;-64
2023/01/21 08:35:38;;;;;;;76.83;37.17;;;-0.10;99.90;;;;;;4999953;28;20043;-63
2023/01/21 08:38:04;;;;;;;70.67;35.73;;;-0.10;99.90;;;;;;4988875;28;20100;-64
2023/01/21 08:40:30;;;;;;;71.40;34.83;;;-0.10;99.90;;;;;;4999803;28;20496;-63
2023/01/21 08:43:01;;;;;;;68.87;35.10;;;-0.10;99.90;;;;;;4986424;28;20046;-63
2023/01/21 08:45:27;;;;;;;74.50;34.93;;;0.00;99.90;;;;;;5004884;28;20030;-63
2023/01/21 08:47:53;;;;;;;67.17;35.00;;;0.10;99.90;;;;;;4985616;28;20131;-63
2023/01/21 08:50:20;;;;;;;73.67;36.00;;;0.10;99.90;;;;;;4987365;28;20435;-63
2023/01/21 08:52:55;;;;;;;60.57;32.30;;;0.20;99.90;;;;;;4989864;28;20298;-63
2023/01/21 08:55:25;;;;;;;62.00;32.03;;;0.30;99.90;;;;;;4985536;28;20034;-63
2023/01/21 08:57:53;;;;;;;60.90;31.83;;;0.40;99.90;;;;;;4987035;28;20033;-65
2023/01/21 09:00:19;;;;;;;79.97;37.17;;;0.50;99.90;;;;;;4981434;28;20061;-65
2023/01/21 09:02:45;;;;;;;80.77;37.57;;;0.50;99.90;;;;;;4965420;28;20442;-64
2023/01/21 09:05:11;;;;;;;62.63;32.03;;;0.50;99.90;;;;;;4972247;28;20046;-64
2023/01/21 09:07:37;;;;;;;69.30;34.23;;;0.60;99.90;;;;;;4979601;28;20038;-63
2023/01/21 09:10:03;;;;;;;64.65;33.35;;;0.70;99.90;;;;;;4986520;28;20061;-64
2023/01/21 09:12:29;;;;;;;61.53;31.83;;;0.80;99.90;;;;;;4993684;28;20500;-64
2023/01/21 09:14:55;;;;;;;79.95;41.03;;;0.80;99.90;;;;;;4986561;28;20070;-63
2023/01/21 09:17:21;;;;;;;87.47;43.40;;;0.90;99.90;;;;;;4989671;28;20386;-63
2023/01/21 09:19:47;;;;;;;93.18;48.65;;;0.90;99.90;;;;;;4981266;28;20080;-63
2023/01/21 09:22:14;;;;;;;86.47;44.22;;;0.90;99.90;;;;;;4965895;28;20162;-62
2023/01/21 09:24:40;;;;;;;79.45;37.70;;;0.90;99.90;;;;;;4988683;28;20052;-64
2023/01/21 09:27:09;;;;;;;76.93;36.45;;;1.00;99.90;;;;;;5004113;28;20125;-63
2023/01/21 09:29:35;;;;;;;75.90;38.47;;;1.00;99.90;;;;;;4987055;28;20454;-62
2023/01/21 09:32:01;;;;;;;81.63;39.50;;;1.10;99.90;;;;;;4971799;28;20046;-64
2023/01/21 09:34:27;;;;;;;79.35;38.10;;;1.10;99.90;;;;;;4989349;28;20034;-62
2023/01/21 09:36:53;;;;;;;71.22;36.05;;;1.10;99.90;;;;;;4996053;28;20029;-65
2023/01/21 09:39:19;;;;;;;78.43;35.50;;;1.20;99.90;;;;;;4989273;28;20045;-62
2023/01/21 09:41:49;;;;;;;73.45;34.10;;;1.20;99.90;;;;;;4992095;28;20399;-62
2023/01/21 09:44:32;;;;;;;75.55;37.80;;;1.30;99.90;;;;;;4971129;28;20088;-62
2023/01/21 09:47:09;;;;;;;75.82;38.63;;;1.40;99.90;;;;;;4992081;28;20045;-62
2023/01/21 09:49:42;;;;;;;71.10;35.78;;;1.40;99.90;;;;;;4989816;28;20558;-62
2023/01/21 09:52:32;;;;;;;82.47;39.45;;;1.50;99.90;;;;;;4988570;28;20100;-63
2023/01/21 09:55:00;;;;;;;78.60;36.53;;;1.70;99.90;;;;;;4990344;28;20384;-62
2023/01/21 09:57:32;;;;;;;72.13;35.85;;;1.70;99.90;;;;;;4994427;28;20034;-63
2023/01/21 09:59:57;;;;;;;80.68;39.33;;;1.80;99.90;;;;;;5018928;28;20046;-61
2023/01/21 10:02:43;;;;;;;70.47;34.28;;;1.90;99.90;;;;;;4986805;28;20068;-62
2023/01/21 10:05:24;;;;;;;73.40;34.80;;;2.00;99.90;;;;;;4995051;28;20049;-63
2023/01/21 10:08:04;;;;;;;71.38;35.38;;;2.20;99.90;;;;;;4992593;28;20042;-63
2023/01/21 10:10:44;;;;;;;67.78;34.13;;;2.20;99.90;;;;;;4991109;28;20123;-62
2023/01/21 10:13:24;;;;;;;62.20;32.42;;;2.30;99.90;;;;;;4987085;28;20046;-62
2023/01/21 10:16:24;;;;;;;67.35;34.05;;;2.40;99.90;;;;;;4991598;28;20488;-64
2023/01/21 10:18:52;;;;;;;65.50;33.80;;;2.40;99.90;;;;;;4962793;28;20077;-62
2023/01/21 10:21:20;;;;;;;60.10;30.98;;;2.50;99.90;;;;;;5009600;28;20108;-62
2023/01/21 10:23:56;;;;;;;57.50;30.75;;;2.50;99.90;;;;;;4997554;28;20083;-61
2023/01/21 10:26:24;;;;;;;68.13;33.38;;;2.60;99.90;;;;;;4997497;28;20049;-63
2023/01/21 10:28:52;;;;;;;64.88;34.00;;;2.60;99.90;;;;;;5006594;28;20260;-62
2023/01/21 10:31:31;;;;;;;61.35;32.60;;;2.60;99.90;;;;;;5000642;28;20041;-63
2023/01/21 10:33:57;;;;;;;64.40;33.63;;;2.70;99.90;;;;;;4985188;28;20057;-64
2023/01/21 10:36:46;;;;;;;61.67;34.40;;;2.70;99.90;;;;;;4988016;28;20493;-63
2023/01/21 10:39:40;;;;;;;65.40;33.25;;;2.70;99.90;;;;;;5000639;28;20096;-63
2023/01/21 10:42:05;;;;;;;58.15;29.60;;;2.80;99.90;;;;;;4985493;28;20575;-62
2023/01/21 10:44:37;;;;;;;56.42;30.67;;;3.00;99.90;;;;;;4986401;28;20089;-62
2023/01/21 10:47:27;;;;;;;64.50;33.40;;;3.10;99.90;;;;;;4982189;28;20034;-62
2023/01/21 10:49:57;;;;;;;52.13;29.42;;;3.20;99.90;;;;;;4992399;28;20473;-62
2023/01/21 10:52:46;;;;;;;54.08;30.58;;;3.30;99.90;;;;;;4985393;28;20108;-63
2023/01/21 10:55:35;;;;;;;47.20;25.23;;;3.40;99.90;;;;;;4981827;28;20042;-63
2023/01/21 10:58:20;;;;;;;43.03;23.52;;;3.60;99.90;;;;;;4991004;28;20459;-63
2023/01/21 11:00:48;;;;;;;39.53;21.65;;;3.70;99.90;;;;;;4998990;28;20042;-64
2023/01/21 11:03:37;;;;;;;40.92;21.58;;;3.80;99.90;;;;;;4987558;28;20054;-64
2023/01/21 11:06:07;;;;;;;40.63;23.00;;;4.00;99.90;;;;;;4987274;28;20049;-63
2023/01/21 11:08:33;;;;;;;36.83;22.60;;;4.00;99.90;;;;;;5000869;28;20057;-63
2023/01/21 11:10:59;;;;;;;39.22;23.63;;;4.10;99.90;;;;;;4952159;28;20033;-64
2023/01/21 11:13:25;;;;;;;44.67;24.73;;;4.10;99.90;;;;;;5015004;28;20492;-63
2023/01/21 11:15:53;;;;;;;40.15;21.77;;;4.10;99.90;;;;;;4984019;28;20065;-63
2023/01/21 11:18:29;;;;;;;40.10;22.60;;;4.20;99.90;;;;;;4972105;28;20065;-63
2023/01/21 11:21:01;;;;;;;31.25;18.55;;;4.30;99.90;;;;;;4984034;28;20069;-63
2023/01/21 11:23:34;;;;;;;30.27;19.25;;;4.40;99.90;;;;;;4989940;28;20397;-63
2023/01/21 11:26:27;;;;;;;32.70;18.77;;;4.40;99.90;;;;;;4985975;28;20489;-63
2023/01/21 11:29:06;;;;;;;30.73;17.92;;;4.40;99.90;;;;;;5010384;28;20038;-62
2023/01/21 11:31:33;;;;;;;27.65;17.17;;;4.50;99.90;;;;;;5015708;28;20443;-63
2023/01/21 11:34:09;;;;;;;31.67;17.75;;;4.50;99.90;;;;;;4985602;28;20488;-64
2023/01/21 11:36:35;;;;;;;27.60;16.17;;;4.50;99.90;;;;;;4981035;28;20034;-65
2023/01/21 11:39:04;;;;;;;26.70;16.52;;;4.50;99.90;;;;;;4998061;28;20048;-63
2023/01/21 11:41:30;;;;;;;28.17;17.58;;;4.60;99.90;;;;;;4982012;28;20119;-62
2023/01/21 11:44:16;;;;;;;31.23;17.80;;;4.70;99.90;;;;;;4994521;28;20210;-63
2023/01/21 11:46:43;;;;;;;28.42;16.58;;;4.80;99.90;;;;;;4986039;28;20100;-63
2023/01/21 11:49:09;;;;;;;20.95;13.15;;;4.90;99.90;;;;;;4986170;28;20077;-63
2023/01/21 11:51:36;;;;;;;25.15;16.02;;;4.90;99.90;;;;;;4986120;28;21037;-63
2023/01/21 11:54:20;;;;;;;22.50;14.60;;;5.00;99.90;;;;;;4991866;28;20037;-63
2023/01/21 11:57:01;;;;;;;24.70;14.48;;;5.20;99.90;;;;;;4997321;28;20050;-62
2023/01/21 11:59:29;;;;;;;22.70;12.65;;;5.30;99.90;;;;;;5002690;28;20128;-65
2023/01/21 12:02:17;;;;;;;21.90;13.65;;;5.40;99.90;;;;;;4979533;28;20046;-63
2023/01/21 12:04:47;;;;;;;22.75;14.18;;;5.50;99.90;;;;;;4981947;28;20041;-63
2023/01/21 12:07:21;;;;;;;23.88;14.73;;;5.50;99.90;;;;;;4997292;28;20080;-63
2023/01/21 12:09:54;;;;;;;;;;;5.60;99.90;;;;;;4970315;28;20122;-64
2023/01/21 12:12:20;;;;;;;17.20;11.15;;;5.60;99.90;;;;;;4979672;28;19972;-65
2023/01/21 12:15:05;;;;;;;19.33;11.00;;;5.60;99.90;;;;;;4990915;28;20447;-64
2023/01/21 12:17:50;;;;;;;19.13;11.70;;;5.70;99.90;;;;;;4998159;28;20038;-64
2023/01/21 12:20:27;;;;;;;16.05;10.05;;;5.70;99.90;;;;;;4998866;28;20050;-64
2023/01/21 12:23:15;;;;;;;15.88;10.18;;;5.70;99.90;;;;;;4984492;28;20496;-62
2023/01/21 12:25:50;;;;;;;16.65;10.30;;;5.70;99.90;;;;;;4989107;28;20143;-64
2023/01/21 12:28:31;;;;;;;13.85;9.30;;;5.70;99.90;;;;;;4996093;28;20046;-63
2023/01/21 12:31:31;;;;;;;15.95;9.93;;;5.60;99.90;;;;;;4982168;28;20104;-63
2023/01/21 12:34:15;;;;;;;14.52;10.15;;;5.70;99.90;;;;;;5001529;28;20049;-62
2023/01/21 12:36:48;;;;;;;15.00;9.82;;;5.70;99.90;;;;;;4988078;28;20041;-63
2023/01/21 12:39:25;;;;;;;15.60;10.18;;;5.60;99.90;;;;;;4968915;28;20493;-64
2023/01/21 12:42:17;;;;;;;14.15;9.43;;;5.60;99.90;;;;;;4988759;28;20038;-63
2023/01/21 12:44:52;;;;;;;15.98;10.30;;;5.50;99.90;;;;;;4965328;28;20046;-63
2023/01/21 12:47:39;;;;;;;14.77;9.70;;;5.40;99.90;;;;;;4988988;28;20550;-63
2023/01/21 12:50:14;;;;;;;14.50;10.07;;;5.30;99.90;;;;;;4985131;28;20038;-62
2023/01/21 12:52:51;;;;;;;13.85;9.60;;;5.30;99.90;;;;;;4977060;28;20112;-64
2023/01/21 12:55:30;;;;;;;15.57;10.48;;;5.30;99.90;;;;;;5016416;28;20392;-62